Time,TemperatureF,DewpointF,PressureIn,WindDirection,WindDirectionDegrees,WindSpeedMPH,WindSpeedGustMPH,Humidity,HourlyPrecipIn,Conditions,Clouds,dailyrainin,SoftwareType,DateUTC
2013-01-24 03:37:00,10.6,-99.9,30.18,NNW,345,2.0,5.4,-999,0.00,,,-99.99,FreeWX 2.04,2013-01-24 08:37:00,
2013-01-24 03:42:00,10.2,-99.9,30.18,NNW,342,2.0,5.4,-999,0.00,,,-99.99,FreeWX 2.04,2013-01-24 08:42:00,
2013-01-24 03:47:00,10.0,-99.9,30.21,NNW,331,2.0,5.4,-999,0.00,,,-99.99,FreeWX 2.04,2013-01-24 08:47:00,
2013-01-24 03:52:00,10.2,-99.9,30.21,NW,309,2.0,5.8,-999,0.00,,,-99.99,FreeWX 2.04,2013-01-24 08:52:00,
2013-01-24 03:57:00,10.0,-99.9,30.21,WNW,300,1.0,5.8,-999,0.00,,,-99.99,FreeWX 2.04,2013-01-24 08:57:00,
2013-01-24 07:18:00,3.0,-99.9,30.36,North,-999,0.0,0.0,-999,0.00,,,-99.99,FreeWX 2.04,2013-01-24 12:18:00,
2013-01-24 07:23:00,2.8,-99.9,30.36,North,-999,0.0,4.0,-999,0.00,,,-99.99,FreeWX 2.04,2013-01-24 12:23:00,
2013-01-24 07:28:00,2.8,-99.9,30.36,North,-999,0.0,0.0,-999,0.00,,,-99.99,FreeWX 2.04,2013-01-24 12:28:00,
2013-01-24 07:33:00,2.7,-99.9,30.39,North,-999,0.0,4.5,-999,0.00,,,-99.99,FreeWX 2.04,2013-01-24 12:33:00,
2013-01-24 07:38:00,2.7,-99.9,30.39,NW,305,1.0,4.9,-999,0.00,,,-99.99,FreeWX 2.04,2013-01-24 12:38:00,
2013-01-24 07:43:00,2.5,-99.9,30.39,WNW,302,1.0,4.9,-999,0.00,,,-99.99,FreeWX 2.04,2013-01-24 12:43:00,
2013-01-24 07:48:00,2.1,-99.9,30.39,WNW,300,1.0,4.0,-999,0.00,,,-99.99,FreeWX 2.04,2013-01-24 12:48:00,
2013-01-24 07:53:00,1.9,-99.9,30.39,NW,306,1.0,4.5,-999,0.00,,,-99.99,FreeWX 2.04,2013-01-24 12:53:00,
2013-01-24 07:58:00,1.8,-99.9,30.39,NW,306,1.0,4.0,-999,0.00,,,-99.99,FreeWX 2.04,2013-01-24 12:58:00,
2013-01-24 08:03:00,1.6,-99.9,30.39,NW,307,1.0,3.6,-999,0.00,,,-99.99,FreeWX 2.04,2013-01-24 13:03:00,
2013-01-24 08:08:00,1.6,-99.9,30.39,North,-999,0.0,4.5,-999,0.00,,,-99.99,FreeWX 2.04,2013-01-24 13:08:00,
2013-01-24 08:13:00,1.6,-99.9,30.39,North,-999,0.0,2.7,-999,0.00,,,-99.99,FreeWX 2.04,2013-01-24 13:13:00,
2013-01-24 08:18:00,1.4,-99.9,30.39,North,-999,0.0,3.6,-999,0.00,,,-99.99,FreeWX 2.04,2013-01-24 13:18:00,
2013-01-24 08:23:00,1.6,-99.9,30.39,North,-999,0.0,4.0,-999,0.00,,,-99.99,FreeWX 2.04,2013-01-24 13:23:00,
2013-01-24 08:28:00,1.4,-99.9,30.39,North,-999,0.0,0.0,-999,0.00,,,-99.99,FreeWX 2.04,2013-01-24 13:28:00,
2013-01-24 08:33:00,1.4,-99.9,30.41,North,-999,0.0,0.0,-999,0.00,,,-99.99,FreeWX 2.04,2013-01-24 13:33:00,
2013-01-24 08:38:00,1.6,-99.9,30.41,North,-999,0.0,4.5,-999,0.00,,,-99.99,FreeWX 2.04,2013-01-24 13:38:00,
2013-01-24 08:43:00,1.8,-99.9,30.41,North,-999,0.0,4.9,-999,0.00,,,-99.99,FreeWX 2.04,2013-01-24 13:43:00,
2013-01-24 08:48:00,1.9,-99.9,30.41,North,-999,0.0,0.0,-999,0.00,,,-99.99,FreeWX 2.04,2013-01-24 13:48:00,
2013-01-24 08:53:00,1.9,-99.9,30.41,North,-999,0.0,4.0,-999,0.00,,,-99.99,FreeWX 2.04,2013-01-24 13:53:00,
2013-01-24 08:58:00,2.5,-99.9,30.41,North,-999,0.0,4.9,-999,0.00,,,-99.99,FreeWX 2.04,2013-01-24 13:58:00,
2013-01-24 09:03:00,2.7,-99.9,30.41,NW,311,1.0,4.9,-999,0.00,,,-99.99,FreeWX 2.04,2013-01-24 14:03:00,
2013-01-24 09:08:00,2.8,-99.9,30.41,NW,317,1.0,4.0,-999,0.00,,,-99.99,FreeWX 2.04,2013-01-24 14:08:00,
2013-01-24 09:13:00,3.2,-99.9,30.41,WNW,295,1.0,4.9,-999,0.00,,,-99.99,FreeWX 2.04,2013-01-24 14:13:00,
2013-01-24 09:18:00,3.7,-99.9,30.41,WNW,290,2.0,4.5,-999,0.00,,,-99.99,FreeWX 2.04,2013-01-24 14:18:00,
2013-01-24 09:23:00,4.1,-99.9,30.41,NW,323,1.0,4.0,-999,0.00,,,-99.99,FreeWX 2.04,2013-01-24 14:23:00,
2013-01-24 09:29:00,4.3,-99.9,30.41,NW,323,2.0,6.7,-999,0.00,,,-99.99,FreeWX 2.04,2013-01-24 14:29:00,
2013-01-24 09:34:00,4.6,-99.9,30.44,NW,321,3.0,5.8,-999,0.00,,,-99.99,FreeWX 2.04,2013-01-24 14:34:00,
2013-01-24 09:39:00,5.0,-99.9,30.44,NW,320,2.0,4.9,-999,0.00,,,-99.99,FreeWX 2.04,2013-01-24 14:39:00,
2013-01-24 09:44:00,5.5,-99.9,30.44,NNW,332,1.0,4.5,-999,0.00,,,-99.99,FreeWX 2.04,2013-01-24 14:44:00,
2013-01-24 09:49:00,5.9,-99.9,30.44,North,-999,0.0,0.0,-999,0.00,,,-99.99,FreeWX 2.04,2013-01-24 14:49:00,
2013-01-24 09:54:00,6.1,-99.9,30.44,NNW,345,1.0,6.3,-999,0.00,,,-99.99,FreeWX 2.04,2013-01-24 14:54:00,
2013-01-24 09:59:00,6.4,-99.9,30.44,NNW,339,2.0,4.9,-999,0.00,,,-99.99,FreeWX 2.04,2013-01-24 14:59:00,
2013-01-24 10:04:00,6.6,-99.9,30.44,North,350,2.0,6.3,-999,0.00,,,-99.99,FreeWX 2.04,2013-01-24 15:04:00,
2013-01-24 10:09:00,6.8,-99.9,30.44,NNW,332,2.0,5.4,-999,0.00,,,-99.99,FreeWX 2.04,2013-01-24 15:09:00,
2013-01-24 10:14:00,7.0,-99.9,30.44,NNW,335,2.0,5.8,-999,0.00,,,-99.99,FreeWX 2.04,2013-01-24 15:14:00,
2013-01-24 10:24:00,7.2,-99.9,30.44,NW,304,2.0,6.3,-999,0.00,,,-99.99,FreeWX 2.04,2013-01-24 15:24:00,
2013-01-24 10:29:00,7.3,-99.9,30.44,NW,315,3.0,6.3,-999,0.00,,,-99.99,FreeWX 2.04,2013-01-24 15:29:00,
2013-01-24 10:34:00,7.7,-99.9,30.47,NNW,341,2.0,5.4,-999,0.00,,,-99.99,FreeWX 2.04,2013-01-24 15:34:00,
2013-01-24 10:39:00,8.1,-99.9,30.47,NNE,14,1.0,4.9,-999,0.00,,,-99.99,FreeWX 2.04,2013-01-24 15:39:00,
2013-01-24 10:44:00,8.4,-99.9,30.47,NNW,330,1.0,5.4,-999,0.00,,,-99.99,FreeWX 2.04,2013-01-24 15:44:00,
2013-01-24 10:49:00,8.6,-99.9,30.47,NNW,342,2.0,5.8,-999,0.00,,,-99.99,FreeWX 2.04,2013-01-24 15:49:00,
2013-01-24 10:54:00,8.6,-99.9,30.47,North,10,3.0,5.8,-999,0.00,,,-99.99,FreeWX 2.04,2013-01-24 15:54:00,
2013-01-24 10:59:00,8.4,-99.9,30.47,NW,322,2.0,5.8,-999,0.00,,,-99.99,FreeWX 2.04,2013-01-24 15:59:00,
2013-01-24 11:04:00,8.6,-99.9,30.47,NNW,333,3.0,6.3,-999,0.00,,,-99.99,FreeWX 2.04,2013-01-24 16:04:00,
2013-01-24 11:09:00,8.8,-99.9,30.47,NNE,15,3.0,4.9,-999,0.00,,,-99.99,FreeWX 2.04,2013-01-24 16:09:00,
2013-01-24 11:14:00,9.3,-99.9,30.47,NNW,333,2.0,4.0,-999,0.00,,,-99.99,FreeWX 2.04,2013-01-24 16:14:00,
2013-01-24 11:19:00,9.9,-99.9,30.47,NW,314,2.0,4.9,-999,0.00,,,-99.99,FreeWX 2.04,2013-01-24 16:19:00,
2013-01-24 11:24:00,10.0,-99.9,30.47,North,351,2.0,6.7,-999,0.00,,,-99.99,FreeWX 2.04,2013-01-24 16:24:00,
2013-01-24 11:29:00,9.9,-99.9,30.47,NNE,18,3.0,6.7,-999,0.00,,,-99.99,FreeWX 2.04,2013-01-24 16:29:00,
2013-01-24 11:34:00,9.9,-99.9,30.47,NNE,19,4.0,7.4,-999,0.00,,,-99.99,FreeWX 2.04,2013-01-24 16:34:00,
2013-01-24 11:39:00,9.9,-99.9,30.47,NNW,331,4.0,5.4,-999,0.00,,,-99.99,FreeWX 2.04,2013-01-24 16:39:00,
2013-01-24 11:44:00,10.0,-99.9,30.47,NW,316,3.0,6.3,-999,0.00,,,-99.99,FreeWX 2.04,2013-01-24 16:44:00,
2013-01-24 11:49:00,10.4,-99.9,30.47,WNW,299,2.0,4.9,-999,0.00,,,-99.99,FreeWX 2.04,2013-01-24 16:49:00,
2013-01-24 11:54:00,10.2,-99.9,30.47,WNW,293,3.0,6.3,-999,0.00,,,-99.99,FreeWX 2.04,2013-01-24 16:54:00,
2013-01-24 11:59:00,10.4,-99.9,30.47,NW,317,4.0,6.3,-999,0.00,,,-99.99,FreeWX 2.04,2013-01-24 16:59:00,
2013-01-24 12:04:00,10.9,-99.9,30.47,NNW,344,3.0,6.3,-999,0.00,,,-99.99,FreeWX 2.04,2013-01-24 17:04:00,
2013-01-24 12:09:00,11.5,-99.9,30.47,NW,316,2.0,5.8,-999,0.00,,,-99.99,FreeWX 2.04,2013-01-24 17:09:00,
2013-01-24 12:19:00,11.8,-99.9,30.44,North,11,3.0,5.8,-999,0.00,,,-99.99,FreeWX 2.04,2013-01-24 17:19:00,
2013-01-24 12:24:00,12.0,-99.9,30.44,NNW,331,3.0,6.7,-999,0.00,,,-99.99,FreeWX 2.04,2013-01-24 17:24:00,
2013-01-24 12:29:00,12.2,-99.9,30.44,NW,304,3.0,4.9,-999,0.00,,,-99.99,FreeWX 2.04,2013-01-24 17:29:00,
2013-01-24 12:34:00,11.5,-99.9,30.47,NE,44,3.0,8.7,-999,0.00,,,-99.99,FreeWX 2.04,2013-01-24 17:34:00,
2013-01-24 12:39:00,11.7,-99.9,30.47,NNE,28,4.0,8.7,-999,0.00,,,-99.99,FreeWX 2.04,2013-01-24 17:39:00,
2013-01-24 12:44:00,11.5,-99.9,30.47,NNE,12,3.0,6.9,-999,0.00,,,-99.99,FreeWX 2.04,2013-01-24 17:44:00,
2013-01-24 12:49:00,11.3,-99.9,30.44,NNE,20,3.0,6.3,-999,0.00,,,-99.99,FreeWX 2.04,2013-01-24 17:49:00,
2013-01-24 12:54:00,11.3,-99.9,30.44,NNW,330,3.0,6.3,-999,0.00,,,-99.99,FreeWX 2.04,2013-01-24 17:54:00,
2013-01-24 12:59:00,11.1,-99.9,30.44,WNW,302,3.0,6.3,-999,0.00,,,-99.99,FreeWX 2.04,2013-01-24 17:59:00,
2013-01-24 13:04:00,11.5,-99.9,30.47,NNW,336,3.0,5.8,-999,0.00,,,-99.99,FreeWX 2.04,2013-01-24 18:04:00,
2013-01-24 13:09:00,11.7,-99.9,30.47,NNE,32,3.0,7.8,-999,0.00,,,-99.99,FreeWX 2.04,2013-01-24 18:09:00,
2013-01-24 13:14:00,12.0,-99.9,30.47,NNE,15,3.0,4.9,-999,0.00,,,-99.99,FreeWX 2.04,2013-01-24 18:14:00,
2013-01-24 13:19:00,12.6,-99.9,30.47,NNW,335,2.0,7.8,-999,0.00,,,-99.99,FreeWX 2.04,2013-01-24 18:19:00,
2013-01-24 13:24:00,13.1,-99.9,30.47,WNW,283,2.0,5.8,-999,0.00,,,-99.99,FreeWX 2.04,2013-01-24 18:24:00,
2013-01-24 13:29:00,13.5,-99.9,30.47,West,260,1.0,5.4,-999,0.00,,,-99.99,FreeWX 2.04,2013-01-24 18:29:00,
2013-01-24 13:34:00,14.0,-99.9,30.44,West,265,1.0,5.4,-999,0.00,,,-99.99,FreeWX 2.04,2013-01-24 18:34:00,
2013-01-24 13:39:00,13.3,-99.9,30.44,NW,315,3.0,6.3,-999,0.00,,,-99.99,FreeWX 2.04,2013-01-24 18:39:00,
2013-01-24 13:44:00,13.6,-99.9,30.44,NNE,22,3.0,4.9,-999,0.00,,,-99.99,FreeWX 2.04,2013-01-24 18:44:00,
2013-01-24 13:49:00,13.8,-99.9,30.44,East,81,3.0,5.8,-999,0.00,,,-99.99,FreeWX 2.04,2013-01-24 18:49:00,
2013-01-24 13:54:00,14.2,-13.5,30.44,East,80,2.0,4.0,27,0.00,,,-99.99,FreeWX 2.04,2013-01-24 18:54:00,
2013-01-24 13:59:00,15.3,-13.4,30.44,NE,52,1.0,4.5,26,0.00,,,-99.99,FreeWX 2.04,2013-01-24 18:59:00,
2013-01-24 14:04:00,15.6,-13.2,30.44,NNE,21,2.0,7.8,26,0.00,,,-99.99,FreeWX 2.04,2013-01-24 19:04:00,
2013-01-24 14:09:00,15.8,-13.0,30.44,NE,37,2.0,6.7,26,0.00,,,-99.99,FreeWX 2.04,2013-01-24 19:09:00,
2013-01-24 14:14:00,15.6,-13.2,30.44,ENE,61,2.0,4.5,26,0.00,,,-99.99,FreeWX 2.04,2013-01-24 19:14:00,
2013-01-24 14:19:00,15.6,-13.2,30.44,ENE,68,2.0,4.9,26,0.00,,,-99.99,FreeWX 2.04,2013-01-24 19:19:00,
2013-01-24 14:24:00,15.1,-13.5,30.44,NE,51,2.0,6.3,26,0.00,,,-99.99,FreeWX 2.04,2013-01-24 19:24:00,
2013-01-24 14:29:00,15.4,-13.2,30.44,SW,235,2.0,4.5,26,0.00,,,-99.99,FreeWX 2.04,2013-01-24 19:29:00,
2013-01-24 14:34:00,15.3,-13.4,30.44,WSW,243,2.0,6.3,26,0.00,,,-99.99,FreeWX 2.04,2013-01-24 19:34:00,
2013-01-24 14:39:00,14.4,-13.4,30.44,West,259,3.0,9.6,27,0.00,,,-99.99,FreeWX 2.04,2013-01-24 19:39:00,
2013-01-24 14:44:00,14.0,-13.7,30.44,West,280,4.0,5.4,27,0.00,,,-99.99,FreeWX 2.04,2013-01-24 19:44:00,
2013-01-24 14:49:00,13.6,-99.9,30.44,WNW,290,3.0,4.9,-999,0.00,,,-99.99,FreeWX 2.04,2013-01-24 19:49:00,
2013-01-24 14:54:00,13.6,-99.9,30.44,West,272,2.0,4.5,-999,0.00,,,-99.99,FreeWX 2.04,2013-01-24 19:54:00,
2013-01-24 14:59:00,13.6,-99.9,30.44,WSW,254,2.0,6.7,-999,0.00,,,-99.99,FreeWX 2.04,2013-01-24 19:59:00,
2013-01-24 15:04:00,13.5,-99.9,30.44,West,260,4.0,6.7,-999,0.00,,,-99.99,FreeWX 2.04,2013-01-24 20:04:00,
2013-01-24 15:09:00,13.5,-99.9,30.44,NW,308,3.0,6.7,-999,0.00,,,-99.99,FreeWX 2.04,2013-01-24 20:09:00,
2013-01-24 15:14:00,13.8,-99.9,30.44,NNW,337,3.0,4.9,-999,0.00,,,-99.99,FreeWX 2.04,2013-01-24 20:14:00,
2013-01-24 15:19:00,14.2,-15.9,30.44,ESE,116,3.0,6.7,24,0.00,,,-99.99,FreeWX 2.04,2013-01-24 20:19:00,
2013-01-24 15:24:00,14.4,-13.4,30.44,ENE,61,3.0,5.4,27,0.00,,,-99.99,FreeWX 2.04,2013-01-24 20:24:00,
2013-01-24 15:29:00,14.4,-13.4,30.44,NE,37,2.0,4.5,27,0.00,,,-99.99,FreeWX 2.04,2013-01-24 20:29:00,
2013-01-24 15:34:00,14.2,-15.9,30.44,NE,51,2.0,5.4,24,0.00,,,-99.99,FreeWX 2.04,2013-01-24 20:34:00,
2013-01-24 15:39:00,14.2,-15.9,30.44,East,98,3.0,5.4,24,0.00,,,-99.99,FreeWX 2.04,2013-01-24 20:39:00,
2013-01-24 15:44:00,13.6,-99.9,30.44,East,98,3.0,6.3,-999,0.00,,,-99.99,FreeWX 2.04,2013-01-24 20:44:00,
2013-01-24 15:49:00,13.5,-99.9,30.44,ENE,72,3.0,6.3,-999,0.00,,,-99.99,FreeWX 2.04,2013-01-24 20:49:00,
2013-01-24 15:54:00,13.5,-99.9,30.44,East,80,2.0,4.5,-999,0.00,,,-99.99,FreeWX 2.04,2013-01-24 20:54:00,
2013-01-24 15:59:00,13.3,-99.9,30.44,NE,34,1.0,4.5,-999,0.00,,,-99.99,FreeWX 2.04,2013-01-24 20:59:00,
2013-01-24 16:04:00,13.1,-99.9,30.44,West,278,1.0,3.6,-999,0.00,,,-99.99,FreeWX 2.04,2013-01-24 21:04:00,
2013-01-24 16:09:00,12.7,-99.9,30.44,North,-999,0.0,4.0,-999,0.00,,,-99.99,FreeWX 2.04,2013-01-24 21:09:00,
2013-01-24 16:14:00,12.6,-99.9,30.44,North,-999,0.0,0.0,-999,0.00,,,-99.99,FreeWX 2.04,2013-01-24 21:14:00,
2013-01-24 16:19:00,12.2,-99.9,30.44,North,-999,0.0,5.4,-999,0.00,,,-99.99,FreeWX 2.04,2013-01-24 21:19:00,
2013-01-24 16:24:00,11.8,-99.9,30.44,North,-999,0.0,4.0,-999,0.00,,,-99.99,FreeWX 2.04,2013-01-24 21:24:00,
2013-01-24 16:29:00,11.7,-99.9,30.44,SSE,151,1.0,4.5,-999,0.00,,,-99.99,FreeWX 2.04,2013-01-24 21:29:00,
2013-01-24 16:34:00,11.7,-99.9,30.47,North,-999,0.0,0.0,-999,0.00,,,-99.99,FreeWX 2.04,2013-01-24 21:34:00,
2013-01-24 16:39:00,11.7,-99.9,30.47,North,-999,0.0,0.0,-999,0.00,,,-99.99,FreeWX 2.04,2013-01-24 21:39:00,
2013-01-24 16:44:00,11.3,-99.9,30.47,North,-999,0.0,3.6,-999,0.00,,,-99.99,FreeWX 2.04,2013-01-24 21:44:00,
2013-01-24 16:49:00,10.8,-99.9,30.44,North,-999,0.0,0.0,-999,0.00,,,-99.99,FreeWX 2.04,2013-01-24 21:49:00,
2013-01-24 16:54:00,10.4,-99.9,30.44,North,-999,0.0,0.0,-999,0.00,,,-99.99,FreeWX 2.04,2013-01-24 21:54:00,
2013-01-24 16:59:00,10.0,-99.9,30.44,North,-999,0.0,0.0,-999,0.00,,,-99.99,FreeWX 2.04,2013-01-24 21:59:00,
2013-01-24 17:04:00,9.5,-99.9,30.47,North,-999,0.0,0.0,-999,0.00,,,-99.99,FreeWX 2.04,2013-01-24 22:04:00,
2013-01-24 17:09:00,9.1,-99.9,30.47,North,-999,0.0,0.0,-999,0.00,,,-99.99,FreeWX 2.04,2013-01-24 22:09:00,
2013-01-24 17:14:00,8.8,-99.9,30.47,North,-999,0.0,0.0,-999,0.00,,,-99.99,FreeWX 2.04,2013-01-24 22:14:00,
2013-01-24 17:19:00,8.4,-99.9,30.47,North,-999,0.0,0.0,-999,0.00,,,-99.99,FreeWX 2.04,2013-01-24 22:19:00,
2013-01-24 17:24:00,7.9,-99.9,30.47,North,-999,0.0,0.0,-999,0.00,,,-99.99,FreeWX 2.04,2013-01-24 22:24:00,
2013-01-24 17:29:00,7.5,-99.9,30.47,North,-999,0.0,0.0,-999,0.00,,,-99.99,FreeWX 2.04,2013-01-24 22:29:00,
2013-01-24 17:34:00,7.2,-99.9,30.47,North,-999,0.0,0.0,-999,0.00,,,-99.99,FreeWX 2.04,2013-01-24 22:34:00,
2013-01-24 17:39:00,6.8,-99.9,30.47,North,-999,0.0,0.0,-999,0.00,,,-99.99,FreeWX 2.04,2013-01-24 22:39:00,
2013-01-24 17:44:00,6.4,-99.9,30.47,North,-999,0.0,0.0,-999,0.00,,,-99.99,FreeWX 2.04,2013-01-24 22:44:00,
2013-01-24 17:49:00,6.1,-99.9,30.44,North,-999,0.0,0.0,-999,0.00,,,-99.99,FreeWX 2.04,2013-01-24 22:49:00,
2013-01-24 17:54:00,5.9,-99.9,30.44,North,-999,0.0,0.0,-999,0.00,,,-99.99,FreeWX 2.04,2013-01-24 22:54:00,
2013-01-24 17:59:00,5.4,-99.9,30.44,North,-999,0.0,0.0,-999,0.00,,,-99.99,FreeWX 2.04,2013-01-24 22:59:00,
2013-01-24 18:04:00,5.0,-99.9,30.47,North,-999,0.0,0.0,-999,0.00,,,-99.99,FreeWX 2.04,2013-01-24 23:04:00,
2013-01-24 18:09:00,4.8,-99.9,30.47,North,-999,0.0,0.0,-999,0.00,,,-99.99,FreeWX 2.04,2013-01-24 23:09:00,
2013-01-24 18:14:00,4.5,-99.9,30.47,North,-999,0.0,0.0,-999,0.00,,,-99.99,FreeWX 2.04,2013-01-24 23:14:00,
2013-01-24 18:19:00,4.5,-99.9,30.44,North,-999,0.0,0.0,-999,0.00,,,-99.99,FreeWX 2.04,2013-01-24 23:19:00,
2013-01-24 18:24:00,4.1,-99.9,30.44,North,-999,0.0,0.0,-999,0.00,,,-99.99,FreeWX 2.04,2013-01-24 23:24:00,
2013-01-24 18:29:00,3.7,-99.9,30.44,North,-999,0.0,0.0,-999,0.00,,,-99.99,FreeWX 2.04,2013-01-24 23:29:00,
2013-01-24 18:34:00,3.7,-99.9,30.44,North,-999,0.0,0.0,-999,0.00,,,-99.99,FreeWX 2.04,2013-01-24 23:34:00,
2013-01-24 18:39:00,3.7,-99.9,30.44,North,-999,0.0,0.0,-999,0.00,,,-99.99,FreeWX 2.04,2013-01-24 23:39:00,
2013-01-24 18:44:00,3.4,-99.9,30.44,North,-999,0.0,0.0,-999,0.00,,,-99.99,FreeWX 2.04,2013-01-24 23:44:00,
2013-01-24 18:49:00,3.2,-99.9,30.44,North,-999,0.0,0.0,-999,0.00,,,-99.99,FreeWX 2.04,2013-01-24 23:49:00,
2013-01-24 18:54:00,3.0,-99.9,30.44,North,-999,0.0,0.0,-999,0.00,,,-99.99,FreeWX 2.04,2013-01-24 23:54:00,
2013-01-24 18:59:00,2.8,-99.9,30.44,North,-999,0.0,0.0,-999,0.00,,,-99.99,FreeWX 2.04,2013-01-24 23:59:00,
2013-01-24 19:04:00,2.7,-99.9,30.44,North,-999,0.0,0.0,-999,0.00,,,-99.99,FreeWX 2.04,2013-01-25 00:04:00,
2013-01-24 19:09:00,2.5,-99.9,30.44,North,-999,0.0,0.0,-999,0.00,,,-99.99,FreeWX 2.04,2013-01-25 00:09:00,
2013-01-24 19:14:00,2.5,-99.9,30.44,North,-999,0.0,0.0,-999,0.00,,,-99.99,FreeWX 2.04,2013-01-25 00:14:00,
2013-01-24 19:19:00,2.5,-99.9,30.44,North,-999,0.0,0.0,-999,0.00,,,-99.99,FreeWX 2.04,2013-01-25 00:19:00,
2013-01-24 19:24:00,2.5,-99.9,30.44,North,-999,0.0,0.0,-999,0.00,,,-99.99,FreeWX 2.04,2013-01-25 00:24:00,
2013-01-24 19:29:00,2.3,-99.9,30.44,North,-999,0.0,0.0,-999,0.00,,,-99.99,FreeWX 2.04,2013-01-25 00:29:00,
2013-01-24 19:34:00,2.3,-99.9,30.44,North,-999,0.0,0.0,-999,0.00,,,-99.99,FreeWX 2.04,2013-01-25 00:34:00,
2013-01-24 19:39:00,2.3,-99.9,30.44,North,-999,0.0,0.0,-999,0.00,,,-99.99,FreeWX 2.04,2013-01-25 00:39:00,
2013-01-24 19:44:00,2.1,-99.9,30.44,North,-999,0.0,0.0,-999,0.00,,,-99.99,FreeWX 2.04,2013-01-25 00:44:00,
2013-01-24 19:49:00,2.1,-99.9,30.44,North,-999,0.0,0.0,-999,0.00,,,-99.99,FreeWX 2.04,2013-01-25 00:49:00,
2013-01-24 19:54:00,1.9,-99.9,30.44,North,-999,0.0,0.0,-999,0.00,,,-99.99,FreeWX 2.04,2013-01-25 00:54:00,
2013-01-24 19:59:00,1.9,-99.9,30.44,North,-999,0.0,0.0,-999,0.00,,,-99.99,FreeWX 2.04,2013-01-25 00:59:00,
2013-01-24 20:04:00,1.9,-99.9,30.44,North,-999,0.0,0.0,-999,0.00,,,-99.99,FreeWX 2.04,2013-01-25 01:04:00,
2013-01-24 20:09:00,1.9,-99.9,30.44,North,-999,0.0,0.0,-999,0.00,,,-99.99,FreeWX 2.04,2013-01-25 01:09:00,
2013-01-24 20:14:00,1.9,-99.9,30.44,North,-999,0.0,0.0,-999,0.00,,,-99.99,FreeWX 2.04,2013-01-25 01:14:00,
2013-01-24 20:19:00,1.6,-99.9,30.44,North,-999,0.0,0.0,-999,0.00,,,-99.99,FreeWX 2.04,2013-01-25 01:19:00,
2013-01-24 20:24:00,1.6,-99.9,30.44,North,-999,0.0,0.0,-999,0.00,,,-99.99,FreeWX 2.04,2013-01-25 01:24:00,
2013-01-24 20:29:00,1.6,-99.9,30.44,North,-999,0.0,0.0,-999,0.00,,,-99.99,FreeWX 2.04,2013-01-25 01:29:00,
2013-01-24 20:34:00,1.6,-99.9,30.44,North,-999,0.0,0.0,-999,0.00,,,-99.99,FreeWX 2.04,2013-01-25 01:34:00,
2013-01-24 20:39:00,1.6,-99.9,30.44,North,-999,0.0,0.0,-999,0.00,,,-99.99,FreeWX 2.04,2013-01-25 01:39:00,
2013-01-24 20:44:00,1.8,-99.9,30.44,North,-999,0.0,0.0,-999,0.00,,,-99.99,FreeWX 2.04,2013-01-25 01:44:00,
2013-01-24 20:49:00,1.9,-99.9,30.41,North,-999,0.0,0.0,-999,0.00,,,-99.99,FreeWX 2.04,2013-01-25 01:49:00,
2013-01-24 20:54:00,1.9,-99.9,30.41,North,-999,0.0,0.0,-999,0.00,,,-99.99,FreeWX 2.04,2013-01-25 01:54:00,
2013-01-24 20:59:00,1.9,-99.9,30.41,North,-999,0.0,0.0,-999,0.00,,,-99.99,FreeWX 2.04,2013-01-25 01:59:00,
2013-01-24 21:04:00,1.9,-99.9,30.41,North,-999,0.0,0.0,-999,0.00,,,-99.99,FreeWX 2.04,2013-01-25 02:04:00,
2013-01-24 21:09:00,1.9,-99.9,30.41,North,-999,0.0,0.0,-999,0.00,,,-99.99,FreeWX 2.04,2013-01-25 02:09:00,
2013-01-24 21:14:00,2.1,-99.9,30.41,North,-999,0.0,0.0,-999,0.00,,,-99.99,FreeWX 2.04,2013-01-25 02:14:00,